createdAt,value
2018-03-08T00:01:30.811Z,96375.50
2018-03-08T00:04:00.230Z,96380.58
2018-03-08T00:06:28.491Z,96379.03
2018-03-08T00:08:56.764Z,96386.71
2018-03-08T00:11:25.044Z,96386.63
2018-03-08T00:13:53.317Z,96396.84
2018-03-08T00:16:21.569Z,96398.50
2018-03-08T00:18:50.619Z,96403.50
2018-03-08T00:21:18.864Z,96409.11
2018-03-08T00:23:47.113Z,96415.94
2018-03-08T00:26:16.165Z,96420.84
2018-03-08T00:28:44.420Z,96420.48
2018-03-08T00:31:12.789Z,96422.63
2018-03-08T00:33:41.052Z,96430.30
2018-03-08T00:36:09.344Z,96426.13
2018-03-08T00:38:37.719Z,96427.84
2018-03-08T00:41:05.996Z,96435.16
2018-03-08T00:43:34.268Z,96431.77
2018-03-08T00:46:02.692Z,96437.77
2018-03-08T00:48:30.941Z,96446.23
2018-03-08T00:50:59.226Z,96442.83
2018-03-08T00:53:27.479Z,96450.38
2018-03-08T00:55:55.732Z,96457.56
2018-03-08T00:58:24.021Z,96457.94
2018-03-08T01:00:52.274Z,96460.88
2018-03-08T01:03:21.310Z,96468.50
2018-03-08T01:05:49.673Z,96467.66
2018-03-08T01:08:17.927Z,96471.50
2018-03-08T01:10:46.969Z,96470.17
2018-03-08T01:13:15.207Z,96478.63
2018-03-08T01:15:43.483Z,96482.01
2018-03-08T01:18:11.753Z,96481.98
2018-03-08T01:20:40.050Z,96477.40
2018-03-08T01:23:08.293Z,96479.93
2018-03-08T01:25:37.324Z,96479.09
2018-03-08T01:28:05.578Z,96483.78
2018-03-08T01:30:33.828Z,96475.81
2018-03-08T01:33:02.117Z,96476.19
2018-03-08T01:35:31.145Z,96478.24
2018-03-08T01:37:59.407Z,96482.88
2018-03-08T01:40:27.689Z,96486.70
2018-03-08T01:42:55.995Z,96490.50
2018-03-08T01:45:24.246Z,96493.76
2018-03-08T01:47:52.519Z,96495.89
2018-03-08T01:50:20.828Z,96493.00
2018-03-08T01:52:49.070Z,96493.05
2018-03-08T01:55:17.347Z,96494.19
2018-03-08T01:57:45.600Z,96498.84
2018-03-08T02:00:14.607Z,96495.93
2018-03-08T02:02:42.888Z,96499.70
2018-03-08T02:05:11.161Z,96490.32
2018-03-08T02:07:39.416Z,96492.84
2018-03-08T02:10:08.451Z,96492.05
2018-03-08T02:12:36.695Z,96498.70
2018-03-08T02:15:04.996Z,96496.16
2018-03-08T02:17:33.285Z,96501.27
2018-03-08T02:20:01.559Z,96501.31
2018-03-08T02:22:29.775Z,96499.62
2018-03-08T02:24:58.811Z,96497.11
2018-03-08T02:27:27.099Z,96496.69
2018-03-08T02:29:55.360Z,96494.56
2018-03-08T02:32:23.624Z,96501.59
2018-03-08T02:34:51.912Z,96501.14
2018-03-08T02:37:20.163Z,96505.89
2018-03-08T02:39:49.279Z,96509.22
2018-03-08T02:42:17.557Z,96512.14
2018-03-08T02:44:45.839Z,96508.34
2018-03-08T02:47:14.209Z,96520.27
2018-03-08T02:49:42.490Z,96520.53
2018-03-08T02:52:10.780Z,96523.99
2018-03-08T02:54:39.057Z,96528.66
2018-03-08T02:57:07.312Z,96533.21
2018-03-08T02:59:35.593Z,96532.41
2018-03-08T03:02:03.865Z,96534.13
2018-03-08T03:04:32.124Z,96533.16
2018-03-08T03:07:01.144Z,96539.63
2018-03-08T03:09:29.437Z,96543.07
2018-03-08T03:11:57.700Z,96540.95
2018-03-08T03:14:25.955Z,96542.98
2018-03-08T03:16:54.255Z,96548.43
2018-03-08T03:19:22.535Z,96541.77
2018-03-08T03:21:50.804Z,96540.44
2018-03-08T03:24:19.079Z,96543.91
2018-03-08T03:26:47.376Z,96540.86
2018-03-08T03:29:15.732Z,96540.83
2018-03-08T03:31:44.001Z,96548.57
2018-03-08T03:34:12.282Z,96552.33
2018-03-08T03:36:40.561Z,96553.48
2018-03-08T03:39:08.836Z,96550.20
2018-03-08T03:41:37.098Z,96556.14
2018-03-08T03:44:05.440Z,96557.30
2018-03-08T03:46:34.500Z,96570.47
2018-03-08T03:49:02.761Z,96570.92
2018-03-08T03:51:31.024Z,96575.88
2018-03-08T03:53:59.322Z,96572.06
2018-03-08T03:56:27.596Z,96571.24
2018-03-08T03:58:55.957Z,96570.80
2018-03-08T04:01:24.240Z,96572.38
2018-03-08T04:03:52.549Z,96573.60
2018-03-08T04:06:20.903Z,96576.59
2018-03-08T04:08:49.169Z,96585.95
2018-03-08T04:11:17.424Z,96588.05
2018-03-08T04:13:45.696Z,96590.28
2018-03-08T04:16:14.817Z,96594.91
2018-03-08T04:18:43.090Z,96593.31
2018-03-08T04:21:11.364Z,96593.37
2018-03-08T04:23:39.635Z,96597.91
2018-03-08T04:26:07.916Z,96598.21
2018-03-08T04:28:36.308Z,96595.75
2018-03-08T04:31:04.569Z,96599.87
2018-03-08T04:33:32.823Z,96603.70
2018-03-08T04:36:01.864Z,96601.27
2018-03-08T04:38:30.122Z,96609.21
2018-03-08T04:40:58.389Z,96603.25
2018-03-08T04:43:26.679Z,96612.98
2018-03-08T04:45:54.948Z,96613.05
2018-03-08T04:48:23.244Z,96619.80
2018-03-08T04:50:51.511Z,96614.72
2018-03-08T04:53:19.778Z,96615.13
2018-03-08T04:55:48.036Z,96617.63
2018-03-08T04:58:16.325Z,96616.12
2018-03-08T05:03:19.225Z,96623.60
2018-03-08T05:05:47.502Z,96630.74
2018-03-08T05:08:15.781Z,96628.65
2018-03-08T05:10:45.044Z,96629.05
2018-03-08T05:13:14.065Z,96635.17
2018-03-08T05:15:42.323Z,96628.31
2018-03-08T05:18:11.358Z,96630.89
2018-03-08T05:20:39.721Z,96639.83
2018-03-08T05:23:07.992Z,96628.36
2018-03-08T05:25:36.260Z,96630.88
2018-03-08T05:28:04.508Z,96641.61
2018-03-08T05:30:32.852Z,96644.98
2018-03-08T05:33:01.202Z,96645.85
2018-03-08T05:35:29.459Z,96654.71
2018-03-08T05:37:57.711Z,96656.85
2018-03-08T05:40:25.988Z,96652.58
2018-03-08T05:42:54.297Z,96659.77
2018-03-08T05:45:22.552Z,96660.58
2018-03-08T05:47:51.592Z,96671.59
2018-03-08T05:50:19.954Z,96680.08
2018-03-08T05:52:48.200Z,96677.13
2018-03-08T05:55:17.315Z,96681.30
2018-03-08T05:57:45.570Z,96682.14
2018-03-08T06:00:14.585Z,96685.55
2018-03-08T06:02:42.856Z,96684.63
2018-03-08T06:05:11.974Z,96701.95
2018-03-08T06:07:40.216Z,96700.70
2018-03-08T06:10:09.254Z,96706.22
2018-03-08T06:12:37.544Z,96708.78
2018-03-08T06:15:06.808Z,96718.09
2018-03-08T06:17:35.076Z,96716.36
2018-03-08T06:20:03.337Z,96714.66
2018-03-08T06:22:32.540Z,96729.94
2018-03-08T06:25:00.808Z,96733.27
2018-03-08T06:27:29.920Z,96720.52
2018-03-08T06:29:58.175Z,96728.48
2018-03-08T06:32:27.214Z,96728.83
2018-03-08T06:34:55.489Z,96726.72
2018-03-08T06:37:23.754Z,96728.77
2018-03-08T06:39:52.050Z,96726.73
2018-03-08T06:42:20.296Z,96730.57
2018-03-08T06:44:48.595Z,96727.25
2018-03-08T06:47:17.576Z,96724.19
2018-03-08T06:49:45.859Z,96730.02
2018-03-08T06:52:14.106Z,96735.84
2018-03-08T06:54:42.375Z,96743.42
2018-03-08T06:57:12.151Z,96749.86
2018-03-08T06:59:40.495Z,96754.08
2018-03-08T07:02:09.537Z,96754.95
2018-03-08T07:04:37.865Z,96765.23
2018-03-08T07:07:06.127Z,96761.45
2018-03-08T07:09:34.401Z,96771.64
2018-03-08T07:12:02.727Z,96772.45
2018-03-08T07:14:31.011Z,96778.41
2018-03-08T07:16:59.274Z,96772.44
2018-03-08T07:19:27.615Z,96783.47
2018-03-08T07:21:55.880Z,96777.13
2018-03-08T07:24:24.181Z,96775.37
2018-03-08T07:26:52.445Z,96783.80
2018-03-08T07:29:20.728Z,96781.70
2018-03-08T07:31:49.003Z,96784.31
2018-03-08T07:34:17.281Z,96786.83
2018-03-08T07:36:45.564Z,96789.30
2018-03-08T07:39:13.828Z,96785.52
2018-03-08T07:41:42.090Z,96783.83
2018-03-08T07:44:10.344Z,96785.53
2018-03-08T07:46:39.369Z,96782.95
2018-03-08T07:49:07.700Z,96779.56
2018-03-08T07:51:36.019Z,96782.44
2018-03-08T07:54:04.288Z,96778.58
2018-03-08T07:56:32.586Z,96769.31
2018-03-08T07:59:00.855Z,96770.95
2018-03-08T08:01:29.139Z,96771.73
2018-03-08T08:03:57.381Z,96777.23
2018-03-08T08:09:41.882Z,96775.66
2018-03-08T08:12:10.144Z,96777.42
2018-03-08T08:14:38.400Z,96785.02
2018-03-08T08:17:07.413Z,96788.83
2018-03-08T08:19:35.704Z,96784.23
2018-03-08T08:22:03.952Z,96790.13
2018-03-08T08:24:33.074Z,96796.09
2018-03-08T08:27:01.373Z,96795.26
2018-03-08T08:29:29.630Z,96802.44
2018-03-08T08:31:57.884Z,96796.91
2018-03-08T08:34:26.913Z,96793.02
2018-03-08T08:36:55.162Z,96780.72
2018-03-08T08:39:23.416Z,96777.98
2018-03-08T08:41:52.452Z,96780.58
2018-03-08T08:44:20.717Z,96780.84
2018-03-08T08:46:48.963Z,96784.03
2018-03-08T08:49:18.079Z,96781.91
2018-03-08T08:51:46.336Z,96778.78
2018-03-08T08:54:15.346Z,96781.79
2018-03-08T08:56:43.628Z,96780.55
2018-03-08T08:59:13.347Z,96786.92
2018-03-08T09:01:41.604Z,96781.41
2018-03-08T09:04:09.888Z,96784.02
2018-03-08T09:06:38.170Z,96788.25
2018-03-08T09:09:06.423Z,96783.86
2018-03-08T09:11:35.465Z,96783.33
2018-03-08T09:14:03.708Z,96785.37
2018-03-08T09:16:31.982Z,96781.61
2018-03-08T09:19:00.260Z,96779.09
2018-03-08T09:21:28.535Z,96778.22
2018-03-08T09:23:56.788Z,96775.38
2018-03-08T09:26:25.911Z,96773.08
2018-03-08T09:28:54.177Z,96774.95
2018-03-08T09:31:22.460Z,96772.38
2018-03-08T09:33:50.772Z,96771.55
2018-03-08T09:36:19.007Z,96766.34
2018-03-08T09:38:47.263Z,96774.01
2018-03-08T09:41:16.309Z,96774.91
2018-03-08T09:43:44.592Z,96775.74
2018-03-08T09:46:12.851Z,96774.48
2018-03-08T09:48:41.132Z,96777.03
2018-03-08T09:51:10.217Z,96772.85
2018-03-08T09:53:38.502Z,96765.36
2018-03-08T09:56:06.791Z,96773.48
2018-03-08T09:58:35.992Z,96768.02
2018-03-08T10:01:04.247Z,96770.09
2018-03-08T10:03:32.546Z,96765.29
2018-03-08T10:06:00.801Z,96758.84
2018-03-08T10:08:29.060Z,96757.56
2018-03-08T10:10:57.365Z,96747.56
2018-03-08T10:13:25.684Z,96737.80
2018-03-08T10:15:54.740Z,96739.77
2018-03-08T10:18:23.000Z,96737.31
2018-03-08T10:20:51.252Z,96728.56
2018-03-08T10:23:19.512Z,96736.16
2018-03-08T10:25:48.567Z,96731.87
2018-03-08T10:28:16.913Z,96738.59
2018-03-08T10:30:45.192Z,96734.30
2018-03-08T10:33:13.485Z,96728.95
2018-03-08T10:35:41.725Z,96729.64
2018-03-08T10:38:10.723Z,96724.78
2018-03-08T10:43:07.267Z,96727.11
2018-03-08T10:45:35.585Z,96731.21
2018-03-08T10:48:03.869Z,96729.55
2018-03-08T10:50:32.224Z,96720.72
2018-03-08T10:53:00.515Z,96722.78
2018-03-08T10:55:28.867Z,96727.09
2018-03-08T10:57:57.141Z,96723.84
2018-03-08T11:00:30.900Z,96725.33
2018-03-08T11:02:59.145Z,96723.35
2018-03-08T11:05:27.400Z,96717.69
2018-03-08T11:07:55.676Z,96717.20
2018-03-08T11:10:23.966Z,96727.52
2018-03-08T11:12:52.211Z,96715.31
2018-03-08T11:15:20.556Z,96709.30
2018-03-08T11:17:48.905Z,96705.64
2018-03-08T11:20:17.150Z,96707.17
2018-03-08T11:22:45.446Z,96705.38
2018-03-08T11:25:13.765Z,96705.03
2018-03-08T11:27:42.011Z,96705.28
2018-03-08T11:30:10.279Z,96699.40
2018-03-08T11:32:38.524Z,96695.71
2018-03-08T11:35:06.779Z,96681.77
2018-03-08T11:37:35.823Z,96682.70
2018-03-08T11:40:04.104Z,96684.48
2018-03-08T11:42:32.362Z,96685.00
2018-03-08T11:45:00.634Z,96682.59
2018-03-08T11:47:28.892Z,96676.80
2018-03-08T11:49:57.905Z,96679.39
2018-03-08T11:52:26.172Z,96669.44
2018-03-08T11:54:54.540Z,96673.59
2018-03-08T11:57:22.748Z,96670.89
2018-03-08T11:59:51.108Z,96663.56
2018-03-08T12:02:19.385Z,96663.80
2018-03-08T12:04:47.636Z,96655.42
2018-03-08T12:07:16.695Z,96653.15
2018-03-08T12:09:44.950Z,96647.44
2018-03-08T12:12:13.195Z,96650.85
2018-03-08T12:14:41.485Z,96643.58
2018-03-08T12:17:09.751Z,96639.13
2018-03-08T12:19:37.996Z,96638.56
2018-03-08T12:22:06.267Z,96640.91
2018-03-08T12:24:34.525Z,96643.52
2018-03-08T12:27:02.799Z,96648.27
2018-03-08T12:29:31.080Z,96644.23
2018-03-08T12:31:59.415Z,96644.41
2018-03-08T12:34:27.672Z,96642.21
2018-03-08T12:36:56.794Z,96636.44
2018-03-08T12:39:25.076Z,96637.38
2018-03-08T12:41:53.336Z,96638.28
2018-03-08T12:44:21.600Z,96632.86
2018-03-08T12:46:49.864Z,96624.47
2018-03-08T12:49:18.902Z,96631.41
2018-03-08T12:51:47.289Z,96624.69
2018-03-08T12:54:15.516Z,96623.48
2018-03-08T12:56:44.541Z,96622.97
2018-03-08T12:59:12.815Z,96616.87
2018-03-08T13:01:41.068Z,96608.64
2018-03-08T13:04:09.359Z,96605.78
2018-03-08T13:06:37.638Z,96599.72
2018-03-08T13:09:05.915Z,96598.22
2018-03-08T13:11:34.201Z,96600.52
2018-03-08T13:14:02.476Z,96594.27
2018-03-08T13:16:30.744Z,96588.72
2018-03-08T13:18:59.015Z,96582.66
2018-03-08T13:21:27.400Z,96583.90
2018-03-08T13:23:55.708Z,96580.23
2018-03-08T13:26:23.964Z,96568.73
2018-03-08T13:28:52.233Z,96567.00
2018-03-08T13:31:20.504Z,96571.48
2018-03-08T13:33:48.770Z,96574.21
2018-03-08T13:36:17.049Z,96565.73
2018-03-08T13:38:45.302Z,96559.42
2018-03-08T13:41:14.379Z,96559.92
2018-03-08T13:43:42.677Z,96556.99
2018-03-08T13:46:11.726Z,96553.34
2018-03-08T13:48:40.004Z,96556.53
2018-03-08T13:51:08.267Z,96546.78
2018-03-08T13:53:36.515Z,96543.58
2018-03-08T13:56:04.822Z,96547.06
2018-03-08T13:58:33.827Z,96547.49
2018-03-08T14:01:02.132Z,96544.98
2018-03-08T14:03:31.148Z,96543.83
2018-03-08T14:05:59.545Z,96546.72
2018-03-08T14:08:27.812Z,96537.21
2018-03-08T14:10:56.076Z,96534.26
2018-03-08T14:13:24.340Z,96530.48
2018-03-08T14:15:53.364Z,96528.59
2018-03-08T14:18:21.619Z,96523.17
2018-03-08T14:20:49.950Z,96521.12
2018-03-08T14:23:18.200Z,96517.53
2018-03-08T14:25:46.506Z,96528.11
2018-03-08T14:28:14.775Z,96528.38
2018-03-08T14:30:43.037Z,96523.17
2018-03-08T14:33:11.416Z,96517.22
2018-03-08T14:35:39.693Z,96516.77
2018-03-08T14:38:07.973Z,96512.27
2018-03-08T14:40:36.232Z,96509.05
2018-03-08T14:43:04.527Z,96501.80
2018-03-08T14:45:33.031Z,96489.97
2018-03-08T14:48:01.281Z,96495.43
2018-03-08T14:50:29.561Z,96491.08
2018-03-08T14:52:57.820Z,96489.34
2018-03-08T14:55:26.077Z,96494.48
2018-03-08T14:57:54.428Z,96491.23
2018-03-08T15:00:23.446Z,96496.73
2018-03-08T15:02:51.748Z,96488.94
2018-03-08T15:05:20.061Z,96488.27
2018-03-08T15:07:48.322Z,96489.78
2018-03-08T15:10:16.664Z,96484.86
2018-03-08T15:12:44.938Z,96483.88
2018-03-08T15:15:13.228Z,96481.88
2018-03-08T15:17:41.524Z,96479.49
2018-03-08T15:20:09.821Z,96471.96
2018-03-08T15:22:38.153Z,96462.13
2018-03-08T15:25:06.528Z,96456.13
2018-03-08T15:27:34.827Z,96447.67
2018-03-08T15:30:03.164Z,96439.86
2018-03-08T15:32:31.511Z,96426.08
2018-03-08T15:35:00.761Z,96429.83
2018-03-08T15:37:29.075Z,96430.16
2018-03-08T15:39:58.257Z,96418.24
2018-03-08T15:42:26.740Z,96414.59
2018-03-08T15:44:55.191Z,96405.75
2018-03-08T15:47:24.785Z,96396.00
2018-03-08T15:49:55.009Z,96395.08
2018-03-08T15:52:25.451Z,96390.69
2018-03-08T15:54:55.345Z,96387.57
2018-03-08T15:57:24.473Z,96383.76
2018-03-08T15:59:54.834Z,96386.16
2018-03-08T16:02:26.288Z,96383.69
2018-03-08T16:04:56.174Z,96380.26
2018-03-08T16:10:39.306Z,96382.23
2018-03-08T16:13:08.992Z,96375.64
2018-03-08T16:15:39.779Z,96364.77
2018-03-08T16:18:09.562Z,96369.12
2018-03-08T16:20:39.655Z,96370.58
2018-03-08T16:23:10.322Z,96363.28
2018-03-08T16:25:40.483Z,96370.09
2018-03-08T16:28:10.250Z,96366.61
2018-03-08T16:30:40.201Z,96369.61
2018-03-08T16:33:10.254Z,96368.97
2018-03-08T16:35:40.982Z,96369.27
2018-03-08T16:38:10.926Z,96363.47
2018-03-08T16:40:41.028Z,96366.84
2018-03-08T16:43:11.603Z,96364.89
2018-03-08T16:45:41.748Z,96354.48
2018-03-08T16:48:11.582Z,96363.39
2018-03-08T16:50:42.203Z,96363.27
2018-03-08T16:53:12.948Z,96359.33
2018-03-08T16:55:43.995Z,96363.84
2018-03-08T16:58:13.817Z,96362.47
2018-03-08T17:00:43.891Z,96365.19
2018-03-08T17:03:13.714Z,96367.94
2018-03-08T17:05:43.665Z,96373.59
2018-03-08T17:08:13.576Z,96379.55
2018-03-08T17:10:43.682Z,96383.41
2018-03-08T17:13:14.317Z,96378.84
2018-03-08T17:15:44.985Z,96376.19
2018-03-08T17:18:14.967Z,96372.59
2018-03-08T17:20:45.030Z,96369.27
2018-03-08T17:23:14.889Z,96370.38
2018-03-08T17:25:45.677Z,96366.88
2018-03-08T17:28:16.218Z,96367.69
2018-03-08T17:30:46.184Z,96371.31
2018-03-08T17:33:16.895Z,96374.74
2018-03-08T17:35:48.001Z,96372.32
2018-03-08T17:38:17.840Z,96397.20
2018-03-08T17:40:47.730Z,96407.72
2018-03-08T17:43:17.519Z,96427.16
2018-03-08T17:45:47.653Z,96445.96
2018-03-08T17:48:17.601Z,96452.88
2018-03-08T17:50:47.560Z,96469.81
2018-03-08T17:53:17.333Z,96481.85
2018-03-08T17:55:47.264Z,96496.17
2018-03-08T17:58:17.970Z,96522.87
2018-03-08T18:00:48.094Z,96558.80
2018-03-08T18:03:17.944Z,96574.22
2018-03-08T18:05:47.877Z,96590.70
2018-03-08T18:08:17.933Z,96599.63
2018-03-08T18:10:47.775Z,96603.43
2018-03-08T18:13:18.395Z,96594.56
2018-03-08T18:15:49.457Z,96579.39
2018-03-08T18:18:19.568Z,96573.06
2018-03-08T18:20:50.432Z,96557.44
2018-03-08T18:23:20.199Z,96535.88
2018-03-08T18:25:50.940Z,96519.80
2018-03-08T18:28:21.864Z,96486.42
2018-03-08T18:30:52.885Z,96470.38
2018-03-08T18:33:22.982Z,96479.55
2018-03-08T18:35:53.817Z,96460.48
2018-03-08T18:38:24.516Z,96462.13
2018-03-08T18:40:54.592Z,96486.23
2018-03-08T18:43:24.442Z,96506.59
2018-03-08T18:45:55.149Z,96526.14
2018-03-08T18:48:25.214Z,96518.90
2018-03-08T18:50:55.262Z,96513.89
2018-03-08T18:53:25.115Z,96517.30
2018-03-08T18:55:55.045Z,96505.02
2018-03-08T18:58:28.878Z,96528.61
2018-03-08T19:00:58.900Z,96527.74
2018-03-08T19:03:28.844Z,96551.39
2018-03-08T19:05:58.662Z,96534.12
2018-03-08T19:08:28.573Z,96534.13
2018-03-08T19:10:58.761Z,96560.27
2018-03-08T19:13:28.695Z,96557.38
2018-03-08T19:15:58.867Z,96555.27
2018-03-08T19:18:29.732Z,96558.17
2018-03-08T19:20:59.620Z,96561.56
2018-03-08T19:23:30.333Z,96566.62
2018-03-08T19:26:00.398Z,96570.39
2018-03-08T19:28:31.032Z,96571.63
2018-03-08T19:31:01.110Z,96567.39
2018-03-08T19:33:31.759Z,96572.45
2018-03-08T19:36:02.240Z,96577.51
2018-03-08T19:38:32.034Z,96581.30
2018-03-08T19:41:02.534Z,96592.69
2018-03-08T19:43:32.435Z,96591.44
2018-03-08T19:46:03.136Z,96593.15
2018-03-08T19:48:34.173Z,96599.92
2018-03-08T19:51:04.299Z,96604.58
2018-03-08T19:53:35.067Z,96607.55
2018-03-08T19:56:06.452Z,96600.36
2018-03-08T19:58:36.633Z,96605.46
2018-03-08T20:01:07.669Z,96613.88
2018-03-08T20:03:38.401Z,96615.18
2018-03-08T20:06:09.614Z,96620.65
2018-03-08T20:08:39.307Z,96626.61
2018-03-08T20:11:09.187Z,96633.78
2018-03-08T20:13:39.076Z,96634.22
2018-03-08T20:16:09.749Z,96641.38
2018-03-08T20:18:39.499Z,96640.56
2018-03-08T20:21:10.011Z,96647.73
2018-03-08T20:23:39.959Z,96646.88
2018-03-08T20:26:09.896Z,96640.55
2018-03-08T20:28:39.796Z,96641.39
2018-03-08T20:31:11.414Z,96644.36
2018-03-08T20:33:41.437Z,96654.05
2018-03-08T20:36:13.165Z,96657.85
2018-03-08T20:38:43.735Z,96653.22
2018-03-08T20:41:15.654Z,96657.03
2018-03-08T20:43:45.708Z,96665.03
2018-03-08T20:46:16.652Z,96672.18
2018-03-08T20:48:47.470Z,96673.03
2018-03-08T20:51:18.996Z,96681.91
2018-03-08T20:53:49.280Z,96675.13
2018-03-08T20:56:19.461Z,96676.42
2018-03-08T20:58:48.893Z,96670.51
2018-03-08T21:01:19.140Z,96682.32
2018-03-08T21:03:48.558Z,96686.53
2018-03-08T21:06:18.070Z,96692.02
2018-03-08T21:08:47.453Z,96691.63
2018-03-08T21:11:16.863Z,96689.94
2018-03-08T21:13:46.176Z,96689.09
2018-03-08T21:16:15.621Z,96687.38
2018-03-08T21:18:44.949Z,96693.68
2018-03-08T21:21:15.233Z,96700.46
2018-03-08T21:23:44.729Z,96712.27
2018-03-08T21:26:15.047Z,96718.19
2018-03-08T21:28:45.116Z,96712.70
2018-03-08T21:31:15.869Z,96721.97
2018-03-08T21:33:45.672Z,96724.47
2018-03-08T21:36:16.096Z,96725.75
2018-03-08T21:38:46.570Z,96732.07
2018-03-08T21:41:16.599Z,96732.09
2018-03-08T21:43:46.659Z,96730.41
2018-03-08T21:46:16.759Z,96738.02
2018-03-08T21:48:47.657Z,96742.67
2018-03-08T21:51:18.443Z,96739.71
2018-03-08T21:53:49.057Z,96743.09
2018-03-08T21:56:19.620Z,96744.38
2018-03-08T21:58:49.615Z,96749.44
2018-03-08T22:01:20.410Z,96757.43
2018-03-08T22:03:50.371Z,96756.60
2018-03-08T22:06:27.119Z,96763.36
2018-03-08T22:08:56.944Z,96757.42
2018-03-08T22:11:26.884Z,96759.13
2018-03-08T22:13:56.007Z,96759.97
2018-03-08T22:16:25.094Z,96763.75
2018-03-08T22:18:53.650Z,96766.73
2018-03-08T22:21:22.540Z,96768.45
2018-03-08T22:23:51.003Z,96774.78
2018-03-08T22:26:19.346Z,96772.23
2018-03-08T22:28:48.370Z,96773.08
2018-03-08T22:31:17.389Z,96778.58
2018-03-08T22:33:45.661Z,96776.45
2018-03-08T22:36:13.916Z,96781.94
2018-03-08T22:38:42.188Z,96778.57
2018-03-08T22:41:11.234Z,96781.09
2018-03-08T22:43:39.592Z,96785.77
2018-03-08T22:46:07.859Z,96789.15
2018-03-08T22:48:36.121Z,96796.30
2018-03-08T22:51:04.408Z,96795.08
2018-03-08T22:53:32.656Z,96791.23
2018-03-08T22:56:01.693Z,96798.84
2018-03-08T22:58:29.980Z,96803.50
2018-03-08T23:00:58.232Z,96802.66
2018-03-08T23:03:30.014Z,96807.73
2018-03-08T23:05:58.361Z,96806.86
2018-03-08T23:08:26.756Z,96814.94
2018-03-08T23:10:55.040Z,96811.96
2018-03-08T23:13:23.301Z,96816.19
2018-03-08T23:15:51.579Z,96813.66
2018-03-08T23:18:20.621Z,96821.27
2018-03-08T23:20:48.971Z,96816.17
2018-03-08T23:23:17.231Z,96814.89
2018-03-08T23:25:45.509Z,96816.98
2018-03-08T23:28:13.775Z,96814.91
2018-03-08T23:30:42.031Z,96821.25
2018-03-08T23:33:10.330Z,96822.48
2018-03-08T23:35:38.584Z,96828.84
2018-03-08T23:38:07.620Z,96838.99
2018-03-08T23:40:35.980Z,96828.41
2018-03-08T23:43:04.249Z,96841.50
2018-03-08T23:45:32.496Z,96847.41
2018-03-08T23:48:01.540Z,96847.41
2018-03-08T23:50:29.792Z,96855.45
2018-03-08T23:52:58.056Z,96863.48
2018-03-08T23:55:26.356Z,96857.97
2018-03-08T23:57:54.604Z,96864.75
